createdAt,value
2023-03-05T00:02:21.460Z,5.13
2023-03-05T00:08:26.374Z,8.23
2023-03-05T00:14:29.761Z,6.97
2023-03-05T00:20:33.138Z,8.45
2023-03-05T00:26:39.079Z,6.55
2023-03-05T00:32:42.468Z,7.70
2023-03-05T00:38:45.849Z,6.47
2023-03-05T00:44:50.925Z,8.68
2023-03-05T00:50:55.236Z,7.15
2023-03-05T00:56:58.704Z,7.68
2023-03-05T01:03:03.480Z,8.25
2023-03-05T01:09:06.961Z,5.85
2023-03-05T01:15:10.549Z,8.20
2023-03-05T01:21:15.329Z,7.95
2023-03-05T01:27:19.060Z,7.15
2023-03-05T01:33:22.444Z,7.07
2023-03-05T01:39:27.202Z,6.18
2023-03-05T01:45:33.512Z,5.60
2023-03-05T01:51:38.683Z,5.88
2023-03-05T01:57:45.982Z,5.68
2023-03-05T02:03:50.063Z,7.53
2023-03-05T02:09:53.667Z,6.75
2023-03-05T02:15:59.963Z,4.97
2023-03-05T02:22:04.727Z,6.35
2023-03-05T02:28:09.837Z,6.90
2023-03-05T02:34:13.328Z,4.97
2023-03-05T02:40:18.833Z,5.85
2023-03-05T02:46:22.347Z,5.22
2023-03-05T02:52:25.826Z,8.38
2023-03-05T02:58:30.668Z,3.72
2023-03-05T03:04:34.363Z,6.93
2023-03-05T03:10:38.252Z,7.50
2023-03-05T03:16:43.129Z,7.55
2023-03-05T03:22:47.602Z,6.47
2023-03-05T03:28:51.073Z,5.18
2023-03-05T03:34:55.901Z,3.97
2023-03-05T03:40:59.429Z,2.95
2023-03-05T03:47:02.898Z,4.70
2023-03-05T03:53:08.060Z,6.40
2023-03-05T03:59:11.648Z,4.10
2023-03-05T04:05:15.061Z,4.75
2023-03-05T04:11:20.875Z,5.22
2023-03-05T04:17:24.331Z,7.07
2023-03-05T04:23:27.721Z,6.50
2023-03-05T04:29:32.749Z,6.30
2023-03-05T04:35:36.384Z,4.10
2023-03-05T04:41:39.985Z,4.55
2023-03-05T04:47:45.022Z,4.78
2023-03-05T04:53:48.713Z,4.25
2023-03-05T04:59:52.153Z,4.88
2023-03-05T05:06:00.368Z,6.82
2023-03-05T05:12:03.809Z,5.40
2023-03-05T05:18:07.245Z,6.28
2023-03-05T05:24:12.365Z,7.00
2023-03-05T05:30:16.097Z,5.90
2023-03-05T05:36:22.262Z,4.75
2023-03-05T05:42:29.487Z,4.82
2023-03-05T05:48:33.710Z,3.75
2023-03-05T05:54:37.140Z,4.63
2023-03-05T06:00:41.947Z,5.30
2023-03-05T06:06:45.432Z,4.85
2023-03-05T06:12:48.836Z,3.67
2023-03-05T06:18:53.648Z,5.97
2023-03-05T06:24:57.018Z,7.03
2023-03-05T06:31:04.090Z,7.25
2023-03-05T06:37:08.917Z,4.35
2023-03-05T06:43:12.327Z,4.32
2023-03-05T06:49:16.348Z,4.15
2023-03-05T06:55:21.588Z,4.20
2023-03-05T07:01:25.262Z,4.00
2023-03-05T07:07:28.660Z,4.13
2023-03-05T07:13:33.623Z,3.90
2023-03-05T07:19:37.079Z,4.43
2023-03-05T07:25:41.515Z,3.30
2023-03-05T07:31:47.071Z,2.42
2023-03-05T07:37:50.484Z,3.13
2023-03-05T07:43:55.534Z,2.63
2023-03-05T07:50:00.372Z,3.35
2023-03-05T07:56:04.274Z,4.63
2023-03-05T08:02:07.864Z,6.70
2023-03-05T08:08:13.029Z,5.38
2023-03-05T08:14:16.506Z,3.75
2023-03-05T08:20:20.515Z,3.75
2023-03-05T08:26:26.390Z,2.28
2023-03-05T08:32:30.842Z,1.90
2023-03-05T08:38:34.361Z,1.95
2023-03-05T08:44:39.682Z,3.15
2023-03-05T08:50:43.357Z,5.32
2023-03-05T08:56:47.180Z,2.90
2023-03-05T09:02:52.697Z,2.35
2023-03-05T09:08:56.285Z,3.53
2023-03-05T09:14:59.785Z,2.38
2023-03-05T09:21:07.277Z,3.63
2023-03-05T09:27:10.926Z,2.00
2023-03-05T09:33:14.615Z,2.47
2023-03-05T09:39:19.627Z,3.47
2023-03-05T09:45:28.507Z,3.28
2023-03-05T09:51:34.667Z,2.25
2023-03-05T09:57:43.584Z,1.77
2023-03-05T10:03:52.789Z,3.97
2023-03-05T10:09:57.723Z,1.50
2023-03-05T10:16:05.319Z,3.08
2023-03-05T10:22:15.680Z,1.63
2023-03-05T10:28:21.413Z,3.45
2023-03-05T10:34:43.383Z,2.10
2023-03-05T10:40:48.024Z,2.05
2023-03-05T10:46:52.055Z,4.05
2023-03-05T10:53:04.347Z,1.98
2023-03-05T10:59:07.760Z,4.07
2023-03-05T11:05:33.365Z,5.63
2023-03-05T11:11:39.924Z,2.25
2023-03-05T11:17:44.657Z,4.40
2023-03-05T11:24:05.366Z,1.60
2023-03-05T11:30:20.649Z,1.45
2023-03-05T11:36:26.230Z,1.52
2023-03-05T11:42:30.166Z,0.68
2023-03-05T11:48:37.207Z,1.48
2023-03-05T11:54:44.416Z,1.95
2023-03-05T12:00:48.760Z,1.08
2023-03-05T12:06:54.353Z,2.15
2023-03-05T12:12:59.736Z,0.80
2023-03-05T12:19:12.588Z,0.55
2023-03-05T12:25:25.441Z,1.02
2023-03-05T12:31:30.807Z,1.75
2023-03-05T12:37:52.941Z,2.10
2023-03-05T12:50:45.051Z,2.42
2023-03-05T12:56:49.875Z,3.50
2023-03-05T13:02:58.628Z,3.67
2023-03-05T13:09:03.515Z,4.85
2023-03-05T13:15:09.432Z,2.42
2023-03-05T13:21:16.292Z,2.47
2023-03-05T13:27:22.777Z,5.68
2023-03-05T13:33:30.488Z,4.82
2023-03-05T13:39:36.173Z,7.20
2023-03-05T13:45:42.065Z,6.82
2023-03-05T13:51:47.899Z,8.05
2023-03-05T13:57:52.963Z,9.32
2023-03-05T14:03:57.892Z,10.75
2023-03-05T14:10:04.509Z,8.73
2023-03-05T14:16:08.671Z,8.05
2023-03-05T14:22:30.818Z,8.85
2023-03-05T14:28:37.128Z,10.35
2023-03-05T14:34:41.867Z,8.55
2023-03-05T14:40:45.286Z,11.30
2023-03-05T14:46:51.660Z,12.38
2023-03-05T14:52:56.546Z,14.02
2023-03-05T14:59:00.016Z,12.20
2023-03-05T15:05:05.021Z,12.38
2023-03-05T15:11:10.456Z,11.13
2023-03-05T15:17:22.291Z,13.95
2023-03-05T15:23:29.756Z,13.25
2023-03-05T15:29:33.382Z,13.68
2023-03-05T15:35:36.913Z,15.70
2023-03-05T15:41:42.570Z,15.25
2023-03-05T15:47:46.549Z,16.17
2023-03-05T15:53:50.079Z,14.57
2023-03-05T15:59:55.379Z,15.75
2023-03-05T16:05:58.863Z,15.50
2023-03-05T16:12:03.123Z,16.17
2023-03-05T16:18:09.793Z,16.15
2023-03-05T16:24:13.257Z,14.38
2023-03-05T16:30:17.482Z,14.30
2023-03-05T16:36:23.968Z,15.90
2023-03-05T16:42:27.454Z,15.55
2023-03-05T16:48:31.252Z,17.27
2023-03-05T16:54:37.045Z,15.95
2023-03-05T17:00:41.090Z,15.68
2023-03-05T17:06:46.865Z,14.05
2023-03-05T17:12:52.806Z,15.95
2023-03-05T17:18:56.242Z,15.90
2023-03-05T17:24:59.624Z,16.73
2023-03-05T17:31:04.543Z,18.92
2023-03-05T17:37:08.165Z,19.38
2023-03-05T17:43:11.620Z,18.90
2023-03-05T17:49:16.446Z,17.95
2023-03-05T17:55:20.225Z,22.90
2023-03-05T18:01:24.958Z,18.80
2023-03-05T18:07:29.938Z,17.38
2023-03-05T18:13:33.341Z,17.73
2023-03-05T18:19:36.747Z,17.27
2023-03-05T18:25:42.847Z,19.70
2023-03-05T18:31:46.524Z,17.60
2023-03-05T18:37:49.902Z,19.50
2023-03-05T18:43:54.773Z,19.15
2023-03-05T18:49:58.559Z,20.30
2023-03-05T18:56:02.675Z,21.52
2023-03-05T19:02:07.540Z,29.17
2023-03-05T19:08:11.036Z,71.72
2023-03-05T19:14:14.476Z,25.75
2023-03-05T19:20:20.230Z,25.70
2023-03-05T19:26:23.757Z,23.23
2023-03-05T19:32:27.347Z,24.77
2023-03-05T19:38:32.363Z,23.70
2023-03-05T19:44:35.914Z,20.70
2023-03-05T19:50:39.562Z,23.00
2023-03-05T19:56:45.674Z,22.00
2023-03-05T20:02:49.649Z,24.55
2023-03-05T20:08:53.221Z,22.08
2023-03-05T20:14:58.034Z,27.27
2023-03-05T20:21:04.048Z,29.15
2023-03-05T20:27:07.576Z,25.08
2023-03-05T20:33:12.379Z,25.95
2023-03-05T20:39:15.785Z,23.23
2023-03-05T20:45:19.530Z,25.70
2023-03-05T20:51:25.552Z,28.17
2023-03-05T20:57:29.021Z,25.58
2023-03-05T21:03:32.521Z,28.02
2023-03-05T21:09:37.333Z,26.58
2023-03-05T21:15:41.955Z,28.70
2023-03-05T21:21:45.792Z,29.52
2023-03-05T21:27:52.441Z,28.40
2023-03-05T21:33:55.875Z,26.10
2023-03-05T21:39:59.359Z,27.17
2023-03-05T21:46:04.905Z,28.80
2023-03-05T21:52:11.676Z,27.58
2023-03-05T21:58:15.307Z,22.13
2023-03-05T22:04:20.087Z,27.38
2023-03-05T22:10:24.004Z,27.60
2023-03-05T22:16:28.478Z,27.45
2023-03-05T22:22:33.362Z,27.27
2023-03-05T22:28:38.918Z,26.00
2023-03-05T22:34:42.502Z,29.08
2023-03-05T22:40:48.275Z,27.92
2023-03-05T22:46:51.742Z,28.63
2023-03-05T22:52:55.478Z,28.17
2023-03-05T22:59:00.405Z,27.65
2023-03-05T23:05:04.386Z,27.30
2023-03-05T23:11:11.269Z,27.17
2023-03-05T23:17:16.112Z,27.63
2023-03-05T23:23:19.510Z,25.23
2023-03-05T23:30:15.158Z,27.45
2023-03-05T23:36:20.271Z,24.33
2023-03-05T23:42:23.817Z,27.50
2023-03-05T23:48:27.818Z,23.70
2023-03-05T23:54:32.603Z,26.85
